05N weather

South Oaks Aerodrome
Winterville, North Carolina, United States

Public forecast

Using degrees Fahrenheit for public forecast. Weather courtesy of forecast.io.

Closest aviation weather report (METAR) to South Oaks Aerodrome

Closest report is Pitt Greenville Airport, 9.3 nm (17.2 km) N. Retrieved 2019/10/16 10:35 UTC (0 seconds ago):

KPGV 161035Z AUTO 00000KT 10SM -RA SCT003 SCT009 BKN027 17/16 A2988 RMK AO2

Closest aviation forecast (TAF) to South Oaks Aerodrome

Closest forecast is Pitt Greenville Airport, 9.3 nm (17.2 km) N. Retrieved 2019/10/16 06:42 UTC (4 hours ago):

TAF KPGV 160540Z 1606/1706 12003KT P6SM SCT040 BKN100 FM161200 13006KT 5SM -SHRA OVC030 FM161500 15010G15KT 4SM SHRA OVC007 FM162100 27011G17KT P6SM BKN030 FM170000 29010G17KT P6SM SCT050 AMD LTD TO CLD VIS AND WIND